Time;durP1;ratioP1;P1;durP2;ratioP2;P2;SDS_P1;SDS_P2;PMS_P1;PMS_P2;Temp;Humidity;BMP_temperature;BMP_pressure;BME280_temperature;BME280_humidity;BME280_pressure;Samples;Min_cycle;Max_cycle;Signal;HPM_P1;HPM_P2
2023/10/17 00:02:10;;;;;;;11.57;4.15;;;;;;;8.13;67.45;100241.63;6097830;23;20025;-88
2023/10/17 00:04:41;;;;;;;9.57;3.58;;;;;;;8.13;67.23;100237.16;6097609;23;20034;-87
2023/10/17 00:07:09;;;;;;;10.93;4.20;;;;;;;8.10;67.42;100237.38;6097783;23;20045;-87
2023/10/17 00:09:36;;;;;;;6.80;3.35;;;;;;;8.12;67.18;100235.50;6072797;23;20350;-87
2023/10/17 00:17:20;;;;;;;6.35;3.83;;;;;;;8.11;67.46;100219.72;6123411;23;20014;-86
2023/10/17 00:19:49;;;;;;;13.05;4.07;;;;;;;8.10;68.08;100212.75;6121322;23;20049;-86
2023/10/17 00:22:18;;;;;;;11.43;3.63;;;;;;;8.07;67.66;100212.97;6072761;23;20045;-86
2023/10/17 00:24:47;;;;;;;10.63;3.60;;;;;;;8.07;67.16;100200.59;6096428;23;20021;-87
2023/10/17 00:27:14;;;;;;;8.23;3.45;;;;;;;8.04;67.58;100193.72;6096164;23;20021;-87
2023/10/17 00:29:41;;;;;;;8.20;4.13;;;;;;;8.07;67.30;100195.31;6072087;23;20033;-87
2023/10/17 00:32:09;;;;;;;10.85;3.78;;;;;;;8.01;67.13;100193.94;6096619;23;20104;-86
2023/10/17 00:34:36;;;;;;;9.57;3.63;;;;;;;7.97;67.29;100189.00;6096323;23;20026;-87
2023/10/17 00:37:11;;;;;;;9.15;3.78;;;;;;;7.95;67.05;100188.25;6071662;23;20767;-87
2023/10/17 00:39:38;;;;;;;11.80;3.05;;;;;;;7.93;67.14;100183.06;6120353;23;20075;-87
2023/10/17 00:44:38;;;;;;;12.07;3.67;;;;;;;7.93;67.07;100184.84;6120384;23;20502;-87
2023/10/17 00:47:11;;;;;;;8.32;3.70;;;;;;;7.96;66.51;100188.16;6120307;23;20027;-88
2023/10/17 00:49:44;;;;;;;9.15;3.80;;;;;;;7.91;66.97;100194.69;6096674;23;20472;-87
2023/10/17 00:52:32;;;;;;;7.67;3.40;;;;;;;7.86;66.65;100192.41;6073867;23;20075;-87
2023/10/17 00:55:01;;;;;;;6.72;3.20;;;;;;;7.89;67.17;100191.34;6073122;23;20420;-89
2023/10/17 00:57:28;;;;;;;7.57;3.20;;;;;;;7.90;66.74;100188.56;6072219;23;20043;-89
2023/10/17 01:00:11;;;;;;;12.43;3.75;;;;;;;7.91;67.09;100177.06;6072920;23;20028;-88
2023/10/17 01:02:47;;;;;;;7.20;3.67;;;;;;;7.85;67.57;100179.28;6074838;23;20053;-88
2023/10/17 01:05:15;;;;;;;7.38;3.20;;;;;;;7.82;67.13;100181.19;6050955;23;20025;-88
2023/10/17 01:07:42;;;;;;;6.00;3.65;;;;;;;7.80;67.06;100176.97;6097066;23;20379;-89
2023/10/17 01:10:10;;;;;;;7.32;3.40;;;;;;;7.77;67.18;100182.47;6073030;23;20033;-88
2023/10/17 01:12:46;;;;;;;6.18;3.45;;;;;;;7.76;67.39;100173.72;6097700;23;20021;-89
2023/10/17 01:15:28;;;;;;;9.10;3.95;;;;;;;7.67;67.46;100170.88;6074762;23;20021;-88
2023/10/17 01:18:05;;;;;;;7.75;2.83;;;;;;;7.73;67.06;100176.53;6097579;23;20389;-88
2023/10/17 01:20:34;;;;;;;7.93;3.95;;;;;;;7.71;67.04;100167.91;6098422;23;20027;-88
2023/10/17 01:23:01;;;;;;;7.18;3.03;;;;;;;7.66;67.11;100174.44;6097256;23;20025;-87
2023/10/17 01:25:35;;;;;;;5.78;4.05;;;;;;;7.72;67.15;100169.56;6096206;23;20021;-88
2023/10/17 01:28:05;;;;;;;8.07;3.58;;;;;;;7.77;66.74;100174.53;6120776;23;20143;-87
2023/10/17 01:30:32;;;;;;;7.07;3.90;;;;;;;7.70;67.03;100170.66;6049353;23;20045;-88
2023/10/17 01:33:00;;;;;;;7.43;3.35;;;;;;;7.67;66.84;100171.69;6048659;23;20465;-88
2023/10/17 01:35:27;;;;;;;8.13;3.30;;;;;;;7.68;66.88;100172.53;6096027;23;20033;-88
2023/10/17 01:37:56;;;;;;;6.88;3.20;;;;;;;7.64;66.86;100184.31;6096564;23;20036;-88
2023/10/17 01:40:26;;;;;;;9.95;3.80;;;;;;;7.61;67.21;100182.72;6096506;23;20464;-87
2023/10/17 01:42:54;;;;;;;7.90;3.05;;;;;;;7.60;67.47;100176.56;6096564;23;20018;-89
2023/10/17 01:45:22;;;;;;;12.27;4.00;;;;;;;7.58;67.29;100172.34;6096170;23;20414;-89
2023/10/17 01:47:53;;;;;;;9.43;3.90;;;;;;;7.57;67.46;100170.66;6096489;23;20021;-88
2023/10/17 01:50:24;;;;;;;6.00;4.05;;;;;;;7.50;67.81;100178.16;6119489;23;20087;-87
2023/10/17 01:52:54;;;;;;;7.45;3.58;;;;;;;7.49;67.32;100179.13;6072876;23;20088;-88
2023/10/17 01:55:25;;;;;;;11.00;4.60;;;;;;;7.51;67.31;100185.16;6096248;23;20028;-87
2023/10/17 01:57:54;;;;;;;10.02;4.18;;;;;;;7.43;67.70;100190.16;6120757;23;20097;-88
2023/10/17 02:02:55;;;;;;;16.05;3.80;;;;;;;7.42;67.47;100174.38;6121661;23;20080;-88
2023/10/17 02:05:22;;;;;;;8.20;3.83;;;;;;;7.39;67.41;100176.28;6119178;23;20442;-89
2023/10/17 02:07:49;;;;;;;6.80;3.85;;;;;;;7.36;67.35;100171.22;6145401;23;20505;-87
2023/10/17 02:10:21;;;;;;;11.45;4.32;;;;;;;7.37;67.48;100166.78;6121915;23;20454;-87
2023/10/17 02:12:49;;;;;;;7.50;3.85;;;;;;;7.36;68.02;100179.16;6099357;23;20037;-88
2023/10/17 02:15:19;;;;;;;11.48;3.72;;;;;;;7.39;68.18;100171.00;6073655;23;20017;-87
2023/10/17 02:17:47;;;;;;;11.30;4.10;;;;;;;7.39;67.73;100175.44;6050702;23;20021;-88
2023/10/17 02:20:36;;;;;;;7.03;3.08;;;;;;;7.33;67.45;100165.31;6098199;23;20108;-87
2023/10/17 02:23:08;;;;;;;7.68;4.22;;;;;;;7.28;67.38;100163.00;6078330;23;24925;-89
2023/10/17 02:25:37;;;;;;;6.18;3.97;;;;;;;7.31;67.51;100161.94;6098766;23;20014;-87
2023/10/17 02:28:05;;;;;;;10.73;3.38;;;;;;;7.31;67.54;100169.84;6097854;23;20025;-88
2023/10/17 02:30:31;;;;;;;10.32;4.03;;;;;;;7.29;67.93;100171.75;6097459;23;20068;-89
2023/10/17 02:33:10;;;;;;;9.35;3.83;;;;;;;7.27;68.04;100168.38;6121363;23;20022;-87
2023/10/17 02:35:41;;;;;;;11.15;3.90;;;;;;;7.21;67.95;100161.72;6097509;23;20389;-88
2023/10/17 02:38:08;;;;;;;8.23;4.00;;;;;;;7.27;67.93;100157.81;6098650;23;20051;-88
2023/10/17 02:40:40;;;;;;;9.90;3.75;;;;;;;7.21;67.92;100164.38;6098937;23;20018;-89
2023/10/17 02:43:12;;;;;;;9.63;3.67;;;;;;;7.20;67.92;100154.75;6123225;23;20025;-88
2023/10/17 02:45:41;;;;;;;9.73;4.00;;;;;;;7.15;67.80;100149.78;6099278;23;20021;-88
2023/10/17 02:48:23;;;;;;;10.77;3.65;;;;;;;7.24;68.00;100165.94;6098070;23;20025;-88
2023/10/17 02:51:00;;;;;;;9.38;3.88;;;;;;;7.21;67.98;100158.25;6125212;23;20096;-86
2023/10/17 02:53:34;;;;;;;11.00;3.72;;;;;;;7.22;68.13;100160.75;6099640;23;20021;-88
2023/10/17 02:56:18;;;;;;;9.93;3.58;;;;;;;7.22;67.69;100157.28;6099316;23;20025;-89
2023/10/17 02:59:09;;;;;;;7.88;3.58;;;;;;;7.22;67.77;100157.28;6125155;23;20021;-87
2023/10/17 03:01:40;;;;;;;11.68;3.88;;;;;;;7.24;67.67;100169.44;6101558;23;20022;-88
2023/10/17 03:04:09;;;;;;;7.32;3.53;;;;;;;7.21;68.03;100177.56;6074114;23;20052;-88
2023/10/17 03:06:38;;;;;;;10.77;4.05;;;;;;;7.17;68.71;100174.31;6122509;23;20052;-88
2023/10/17 03:14:39;;;;;;;7.93;4.15;;;;;;;7.23;68.18;100170.38;6099012;23;20021;-90
2023/10/17 03:17:07;;;;;;;8.27;4.38;;;;;;;7.17;68.24;100171.66;6077001;23;20025;-88
2023/10/17 03:19:37;;;;;;;7.60;4.20;;;;;;;7.18;68.20;100162.78;6097427;23;20029;-89
2023/10/17 03:22:27;;;;;;;7.70;3.75;;;;;;;7.19;68.50;100168.91;6075955;23;20025;-89
2023/10/17 03:25:18;;;;;;;10.35;3.97;;;;;;;7.18;68.73;100172.50;6102365;23;20319;-88
2023/10/17 03:27:49;;;;;;;10.20;3.78;;;;;;;7.21;68.94;100158.25;6102268;23;20033;-89
2023/10/17 03:30:20;;;;;;;11.63;4.40;;;;;;;7.23;68.94;100159.00;6074179;23;20068;-88
2023/10/17 03:33:26;;;;;;;7.78;4.10;;;;;;;7.23;68.72;100154.53;6093155;23;20051;-88
2023/10/17 03:38:32;;;;;;;9.82;4.07;;;;;;;7.17;69.17;100150.53;6100138;23;20022;-88
2023/10/17 03:41:15;;;;;;;7.95;4.55;;;;;;;7.20;69.08;100151.25;6096804;23;20014;-89
2023/10/17 03:43:52;;;;;;;7.05;3.92;;;;;;;7.18;69.13;100152.22;6099839;23;20088;-87
2023/10/17 03:46:25;;;;;;;11.20;4.20;;;;;;;7.21;68.94;100158.25;6099408;23;20017;-87
2023/10/17 03:49:00;;;;;;;8.45;4.28;;;;;;;7.23;68.01;100153.72;6098240;23;20338;-88
2023/10/17 03:51:27;;;;;;;7.80;3.70;;;;;;;7.23;68.13;100159.00;6124053;23;20028;-88
2023/10/17 03:54:06;;;;;;;11.50;4.57;;;;;;;7.21;67.56;100153.81;6097721;23;20398;-89
2023/10/17 03:56:45;;;;;;;8.25;4.32;;;;;;;7.24;67.60;100156.22;6123223;23;20017;-87
2023/10/17 04:01:41;;;;;;;13.32;4.65;;;;;;;7.15;67.21;100156.88;6097795;23;20446;-89
2023/10/17 04:04:08;;;;;;;11.18;4.20;;;;;;;7.17;67.00;100154.94;6096953;23;20446;-88
2023/10/17 04:06:55;;;;;;;9.27;3.88;;;;;;;7.22;67.44;100160.75;6100668;23;20028;-88
2023/10/17 04:09:26;;;;;;;9.07;4.22;;;;;;;7.18;67.15;100157.50;6098824;23;20426;-88
2023/10/17 04:11:58;;;;;;;7.35;4.50;;;;;;;7.18;67.53;100146.09;6123033;23;20029;-87
2023/10/17 04:14:33;;;;;;;12.25;4.70;;;;;;;7.21;67.55;100145.03;6121634;23;20025;-88
2023/10/17 04:17:04;;;;;;;18.60;4.13;;;;;;;7.23;67.45;100137.84;6098016;23;20025;-87
2023/10/17 04:19:39;;;;;;;10.00;4.15;;;;;;;7.19;67.49;100126.66;6120338;23;20030;-87
2023/10/17 04:22:07;;;;;;;18.13;6.38;;;;;;;7.22;67.07;100128.22;6073301;23;20029;-87
2023/10/17 04:24:48;;;;;;;11.10;5.10;;;;;;;7.23;67.18;100128.13;6076891;23;20096;-87
2023/10/17 04:30:14;;;;;;;10.40;4.32;;;;;;;7.26;67.44;100130.56;6120291;23;20026;-88
2023/10/17 04:32:33;;;;;;;47.33;20.48;;;;;;;7.25;67.25;100128.88;6099916;23;20025;-88
2023/10/17 04:35:02;;;;;;;8.60;4.63;;;;;;;7.20;67.21;100116.91;6102860;23;20485;-88
2023/10/17 04:37:32;;;;;;;41.55;18.38;;;;;;;7.18;67.22;100119.69;6086818;23;20756;-89
2023/10/17 04:56:52;;;;;;;9.00;6.50;;;;;;;7.10;67.54;100119.38;5714349;24;20033;-87
2023/10/17 04:59:28;;;;;;;12.38;5.60;;;;;;;7.13;67.44;100125.28;5896737;23;20078;-88
2023/10/17 05:02:36;;;;;;;11.63;4.90;;;;;;;7.06;67.43;100124.00;5970584;23;20050;-89
2023/10/17 05:07:34;;;;;;;11.02;5.40;;;;;;;7.10;67.72;100127.31;6034547;23;20018;-86
2023/10/17 06:17:33;;;;;;;19.70;5.82;;;;;;;6.95;67.49;100160.88;6144488;23;20055;-84
2023/10/17 06:20:00;;;;;;;18.25;5.50;;;;;;;6.95;67.54;100150.31;6144903;23;20057;-86
2023/10/17 06:28:25;;;;;;;10.77;5.63;;;;;;;6.94;67.54;100164.44;6031852;23;20411;-86
2023/10/17 06:33:38;;;;;;;12.02;5.90;;;;;;;6.89;67.54;100145.44;6120816;23;20427;-86
2023/10/17 06:36:25;;;;;;;14.00;5.78;;;;;;;6.90;67.93;100148.00;6115671;23;20035;-87
2023/10/17 06:38:56;;;;;;;12.98;6.43;;;;;;;6.82;67.89;100145.03;6099115;23;20048;-86
2023/10/17 06:41:38;;;;;;;12.70;6.25;;;;;;;6.74;68.14;100142.03;6083777;23;20092;-86
2023/10/17 06:44:06;;;;;;;12.60;6.15;;;;;;;6.72;68.06;100139.53;6077473;23;20021;-86
2023/10/17 06:46:55;;;;;;;19.15;7.85;;;;;;;6.81;67.86;100145.97;6094039;23;20026;-84
2023/10/17 06:50:04;;;;;;;10.55;5.40;;;;;;;6.79;68.25;100145.22;6073841;23;20616;-87
2023/10/17 06:54:50;;;;;;;17.60;6.82;;;;;;;6.80;68.10;100136.38;6118231;23;20096;-86
2023/10/17 06:57:20;;;;;;;14.93;7.05;;;;;;;6.86;68.20;100140.38;6073326;23;20446;-87
2023/10/17 07:00:00;;;;;;;14.95;7.40;;;;;;;6.91;68.56;100138.25;6122351;23;20462;-84
2023/10/17 07:02:34;;;;;;;16.23;7.35;;;;;;;6.92;68.31;100140.81;6098254;23;20490;-83
2023/10/17 07:05:01;;;;;;;14.25;7.03;;;;;;;6.97;68.13;100132.56;6074576;23;20029;-86
2023/10/17 07:07:39;;;;;;;16.73;6.97;;;;;;;6.92;68.21;100139.94;6097399;23;20026;-83
2023/10/17 07:13:34;;;;;;;13.52;6.47;;;;;;;6.84;68.73;100151.03;6121976;23;20049;-84
2023/10/17 07:16:11;;;;;;;18.73;7.20;;;;;;;6.87;68.43;100131.50;6144201;23;20041;-84
2023/10/17 07:18:44;;;;;;;16.48;8.70;;;;;;;6.87;68.64;100129.72;6093352;23;20500;-85
2023/10/17 07:23:43;;;;;;;23.10;8.95;;;;;;;6.93;68.75;100139.84;6121210;23;20052;-86
2023/10/17 07:26:11;;;;;;;13.73;6.22;;;;;;;6.88;69.00;100136.69;6120279;23;20022;-86
2023/10/17 07:28:42;;;;;;;13.93;6.30;;;;;;;6.95;68.87;100137.97;6092882;23;20103;-85
2023/10/17 07:31:13;;;;;;;16.65;7.75;;;;;;;7.02;68.94;100135.75;6093081;23;20099;-84
2023/10/17 07:33:43;;;;;;;17.58;7.70;;;;;;;7.04;68.76;100133.81;6142351;23;20045;-84
2023/10/17 07:36:15;;;;;;;18.15;7.63;;;;;;;7.05;68.73;100130.25;6116901;23;20390;-85
2023/10/17 07:38:45;;;;;;;17.73;8.27;;;;;;;7.11;68.75;100131.63;6090627;23;20021;-86
2023/10/17 07:41:17;;;;;;;17.52;8.52;;;;;;;7.11;68.64;100135.09;6117081;23;20025;-86
2023/10/17 07:43:44;;;;;;;20.60;10.48;;;;;;;7.11;68.61;100132.47;6117092;23;20080;-86
2023/10/17 07:46:16;;;;;;;16.58;7.93;;;;;;;7.12;68.46;100141.22;6116737;23;20026;-87
2023/10/17 07:48:49;;;;;;;16.20;6.20;;;;;;;7.15;68.50;100141.88;6092722;23;20739;-86
2023/10/17 07:51:16;;;;;;;14.35;8.23;;;;;;;7.17;68.57;100134.69;6070076;23;20707;-86
2023/10/17 07:53:47;;;;;;;17.85;8.65;;;;;;;7.21;68.28;100134.47;6115395;23;20052;-85
2023/10/17 07:56:20;;;;;;;30.42;15.20;;;;;;;7.23;68.37;100130.78;6069121;23;20029;-86
2023/10/17 07:58:56;;;;;;;;;;;;;;;7.14;69.25;100126.13;6140377;23;20084;-83
2023/10/17 08:01:32;;;;;;;15.25;6.70;;;;;;;7.22;68.97;100118.50;6122869;23;20027;-83
2023/10/17 08:04:13;;;;;;;25.23;11.52;;;;;;;7.24;68.50;100121.03;6144831;23;20021;-83
2023/10/17 08:06:40;;;;;;;18.80;6.40;;;;;;;7.27;68.57;100119.03;6099079;23;20025;-85
2023/10/17 08:12:06;;;;;;;16.92;9.40;;;;;;;7.35;68.69;100115.84;6101585;23;20342;-83
2023/10/17 08:14:44;;;;;;;18.33;9.60;;;;;;;7.38;68.45;100113.00;6073527;23;20022;-83
2023/10/17 08:17:14;;;;;;;16.88;10.15;;;;;;;7.42;68.69;100105.69;6123680;23;20013;-83
2023/10/17 08:22:53;;;;;;;16.88;7.53;;;;;;;7.49;68.53;100099.03;6124561;23;20104;-83
2023/10/17 08:25:15;;;;;;;11.57;7.00;;;;;;;7.51;68.40;100097.97;6101421;23;20319;-83
2023/10/17 08:27:46;;;;;;;17.15;6.40;;;;;;;7.48;68.88;100108.75;6097677;23;20028;-83
2023/10/17 08:30:23;;;;;;;14.18;6.82;;;;;;;7.54;68.61;100113.59;6121202;23;20024;-83
2023/10/17 08:33:11;;;;;;;22.13;11.25;;;;;;;7.56;68.65;100116.13;6107078;23;20029;-83
2023/10/17 08:35:39;;;;;;;20.25;11.30;;;;;;;7.60;68.53;100109.66;6144934;23;20021;-83
2023/10/17 08:38:07;;;;;;;14.27;7.10;;;;;;;7.64;68.48;100119.06;6120606;23;20033;-83
2023/10/17 08:43:10;;;;;;;17.35;8.30;;;;;;;7.69;68.18;100119.59;6121364;23;20045;-83
2023/10/17 08:45:39;;;;;;;16.65;6.72;;;;;;;7.72;68.44;100119.34;6096911;23;20459;-83
2023/10/17 08:48:08;;;;;;;12.85;6.70;;;;;;;7.72;68.44;100119.34;6096040;23;20026;-83
2023/10/17 08:50:39;;;;;;;30.05;14.43;;;;;;;7.77;68.84;100124.31;6097123;23;20026;-83
2023/10/17 08:53:13;;;;;;;13.18;6.72;;;;;;;7.78;68.90;100118.06;6096376;23;20041;-83
2023/10/17 08:55:41;;;;;;;13.35;5.82;;;;;;;7.80;68.74;100117.00;6122242;23;20025;-83
2023/10/17 08:58:09;;;;;;;20.48;8.82;;;;;;;7.83;69.00;100122.06;6145448;23;20462;-83
2023/10/17 09:03:36;;;;;;;12.77;7.03;;;;;;;7.75;68.32;100121.78;6122144;23;20026;-83
2023/10/17 09:11:41;;;;;;;17.08;6.55;;;;;;;7.74;68.46;100125.38;6123935;23;20030;-83
2023/10/17 09:14:26;;;;;;;17.65;7.25;;;;;;;7.77;67.87;100116.38;6100149;23;20037;-83
2023/10/17 09:17:10;;;;;;;15.82;5.82;;;;;;;7.80;68.52;100117.00;6143543;23;20033;-83
2023/10/17 09:19:47;;;;;;;12.57;6.38;;;;;;;7.87;68.51;100120.06;6144870;23;20018;-83
2023/10/17 09:22:15;;;;;;;17.25;6.28;;;;;;;7.95;68.37;100111.56;6144425;23;20441;-83
2023/10/17 09:24:46;;;;;;;14.23;6.22;;;;;;;8.01;68.57;100114.63;6141715;23;20021;-84
2023/10/17 09:27:14;;;;;;;14.40;6.78;;;;;;;8.05;68.52;100115.22;6116852;23;20501;-85
2023/10/17 09:29:51;;;;;;;16.33;7.30;;;;;;;8.05;68.64;100115.22;6139958;23;20013;-85
2023/10/17 09:32:40;;;;;;;14.45;6.82;;;;;;;8.01;68.31;100119.03;6092859;23;20036;-84
2023/10/17 09:35:15;;;;;;;15.95;7.05;;;;;;;8.05;68.13;100110.75;6093559;23;20024;-84
2023/10/17 09:37:44;;;;;;;15.93;6.60;;;;;;;8.09;68.08;100105.25;6098255;23;20017;-83
2023/10/17 09:40:12;;;;;;;13.82;6.75;;;;;;;8.15;68.39;100110.94;6120869;23;20025;-82
2023/10/17 09:42:44;;;;;;;13.57;6.40;;;;;;;8.03;67.98;100111.84;6095609;23;20036;-84
2023/10/17 09:45:13;;;;;;;15.38;7.45;;;;;;;8.11;67.91;100116.56;6072581;23;20021;-83
2023/10/17 09:48:01;;;;;;;11.60;5.75;;;;;;;8.19;68.14;100106.25;6096233;23;20843;-84
2023/10/17 09:50:29;;;;;;;19.48;6.80;;;;;;;8.23;68.56;100102.44;6116417;23;20120;-84
2023/10/17 09:52:59;;;;;;;12.55;6.55;;;;;;;8.24;68.46;100097.03;6091788;23;20400;-83
2023/10/17 09:55:26;;;;;;;13.05;6.45;;;;;;;8.28;68.26;100102.94;6116797;23;20025;-83
2023/10/17 09:57:59;;;;;;;13.48;6.60;;;;;;;8.29;68.39;100104.59;6093029;23;20542;-83
2023/10/17 10:00:37;;;;;;;21.38;7.47;;;;;;;8.33;68.41;100100.78;6094405;23;20087;-85
2023/10/17 10:03:05;;;;;;;17.98;7.38;;;;;;;8.41;68.35;100093.13;6117501;23;20649;-84
2023/10/17 10:05:42;;;;;;;16.92;7.13;;;;;;;8.45;68.44;100104.34;6071389;23;20032;-85
2023/10/17 10:08:34;;;;;;;16.58;6.50;;;;;;;8.38;67.65;100116.31;6094169;23;20025;-84
2023/10/17 10:11:03;;;;;;;12.95;6.20;;;;;;;8.39;67.81;100100.34;6093529;23;20033;-84
2023/10/17 10:13:32;;;;;;;16.15;7.20;;;;;;;8.42;67.63;100102.78;6068454;23;20398;-85
2023/10/17 10:16:08;;;;;;;17.58;7.15;;;;;;;8.45;67.92;100101.72;6118914;23;20088;-85
2023/10/17 10:18:35;;;;;;;14.32;5.82;;;;;;;8.48;67.94;100104.13;6092967;23;20026;-84
2023/10/17 10:21:03;;;;;;;16.70;6.97;;;;;;;8.55;68.27;100104.47;6143068;23;20029;-84
2023/10/17 10:23:37;;;;;;;14.75;6.53;;;;;;;8.55;67.79;100104.47;6068981;23;20025;-84
2023/10/17 10:26:16;;;;;;;16.42;6.97;;;;;;;8.56;67.62;100104.38;6094593;23;20458;-84
2023/10/17 10:28:44;;;;;;;20.80;7.50;;;;;;;8.55;68.29;100109.78;6092680;23;20041;-85
2023/10/17 10:31:26;;;;;;;20.98;6.35;;;;;;;8.55;68.05;100110.66;6097137;23;20026;-85
2023/10/17 10:33:55;;;;;;;17.98;7.28;;;;;;;8.61;68.06;100120.75;6118529;23;20017;-85
2023/10/17 10:36:25;;;;;;;15.50;7.20;;;;;;;8.59;67.52;100114.72;6118115;23;20025;-85
2023/10/17 10:38:54;;;;;;;16.40;6.35;;;;;;;8.63;67.59;100110.91;6070008;23;20056;-90
2023/10/17 10:41:22;;;;;;;19.95;6.88;;;;;;;8.64;67.84;100112.56;6106250;23;20382;-87
2023/10/17 10:43:57;;;;;;;12.52;6.78;;;;;;;8.59;67.89;100106.78;6120157;23;20028;-89
2023/10/17 10:46:24;;;;;;;15.18;6.10;;;;;;;8.64;67.98;100099.34;6120306;23;20501;-90
2023/10/17 10:48:53;;;;;;;17.48;7.10;;;;;;;8.70;68.20;100092.72;6094505;23;20124;-87
2023/10/17 10:51:27;;;;;;;11.85;5.60;;;;;;;8.71;67.84;100089.13;6095457;23;20323;-89
2023/10/17 10:53:54;;;;;;;13.45;6.18;;;;;;;8.72;67.61;100087.31;6095480;23;20045;-88
2023/10/17 10:56:22;;;;;;;15.63;6.65;;;;;;;8.70;67.38;100090.06;6097400;23;20025;-89
2023/10/17 10:58:55;;;;;;;14.95;6.07;;;;;;;8.72;67.03;100087.31;6120965;23;20327;-86
2023/10/17 11:01:23;;;;;;;15.73;6.35;;;;;;;8.76;67.24;100081.69;6120404;23;20109;-86
2023/10/17 11:03:52;;;;;;;13.70;6.20;;;;;;;8.75;67.73;100074.72;6118540;23;20664;-87
2023/10/17 11:06:27;;;;;;;12.63;6.00;;;;;;;8.77;67.79;100070.13;6117985;23;20121;-87
2023/10/17 11:08:54;;;;;;;16.58;5.88;;;;;;;8.82;67.65;100069.78;6118161;23;20719;-87
2023/10/17 11:11:22;;;;;;;10.80;5.70;;;;;;;8.83;67.45;100063.53;6096322;23;20761;-88
2023/10/17 11:13:54;;;;;;;14.38;5.38;;;;;;;8.80;67.46;100056.66;6119203;23;20100;-88
2023/10/17 11:16:24;;;;;;;15.52;5.80;;;;;;;8.80;67.44;100059.31;6120327;23;20024;-89
2023/10/17 11:18:53;;;;;;;17.27;5.97;;;;;;;8.81;67.54;100057.50;6095636;23;20033;-89
2023/10/17 11:21:21;;;;;;;13.63;6.10;;;;;;;8.82;67.27;100045.94;6120608;23;20017;-88
2023/10/17 11:23:55;;;;;;;11.70;5.43;;;;;;;8.80;67.67;100046.06;6096044;23;20044;-88
2023/10/17 11:26:29;;;;;;;12.15;6.80;;;;;;;8.79;67.36;100048.81;6120098;23;20021;-87
2023/10/17 11:28:57;;;;;;;12.35;6.60;;;;;;;8.80;67.43;100043.44;6117818;23;20021;-87
2023/10/17 11:31:25;;;;;;;11.45;5.50;;;;;;;8.82;67.35;100043.28;6143396;23;20018;-87
2023/10/17 11:34:03;;;;;;;13.57;6.18;;;;;;;8.83;67.61;100040.53;6093630;23;20029;-87
2023/10/17 11:36:45;;;;;;;13.50;6.15;;;;;;;8.84;67.75;100020.19;6094315;23;20028;-88
2023/10/17 11:39:15;;;;;;;11.60;5.28;;;;;;;8.89;68.27;100018.84;6141163;23;20048;-88
2023/10/17 11:41:55;;;;;;;13.02;5.93;;;;;;;8.93;68.12;100023.91;6095495;23;20025;-84
2023/10/17 11:44:24;;;;;;;11.85;5.70;;;;;;;8.96;68.07;100029.81;6098187;23;20029;-83
2023/10/17 11:47:05;;;;;;;11.95;5.53;;;;;;;9.00;68.15;100014.53;6121645;23;20802;-84
2023/10/17 11:49:35;;;;;;;11.82;6.05;;;;;;;9.02;68.01;100008.13;6145471;23;20453;-84
2023/10/17 11:52:10;;;;;;;14.38;5.97;;;;;;;9.03;67.94;100015.13;6073272;23;20311;-85
2023/10/17 11:55:04;;;;;;;10.25;5.50;;;;;;;9.02;67.92;100016.09;6145062;23;20088;-85
2023/10/17 11:57:32;;;;;;;10.68;5.95;;;;;;;9.06;68.17;100004.28;6119113;23;20365;-86
2023/10/17 12:02:43;;;;;;;14.80;6.03;;;;;;;9.06;68.07;99999.00;6094207;23;20509;-87
2023/10/17 12:05:17;;;;;;;10.82;5.63;;;;;;;9.11;67.98;99999.47;6091930;23;20021;-86
2023/10/17 12:07:49;;;;;;;12.38;5.97;;;;;;;9.12;68.06;100000.31;6094096;23;20028;-85
2023/10/17 12:10:17;;;;;;;9.30;5.15;;;;;;;9.13;68.07;99986.09;6144447;23;20025;-86
2023/10/17 12:12:44;;;;;;;12.57;6.05;;;;;;;9.15;68.11;99986.81;6094727;23;20458;-83
2023/10/17 12:15:13;;;;;;;10.25;5.82;;;;;;;9.13;67.99;99988.72;6095264;23;20481;-85
2023/10/17 12:17:41;;;;;;;14.75;7.22;;;;;;;9.16;68.07;99980.56;6096219;23;20021;-83
2023/10/17 12:20:11;;;;;;;11.45;6.18;;;;;;;9.15;68.44;99975.38;6119305;23;20024;-84
2023/10/17 12:22:39;;;;;;;14.80;6.32;;;;;;;9.24;69.32;99975.47;6141371;23;20493;-87
2023/10/17 12:25:09;;;;;;;10.48;5.57;;;;;;;9.28;68.63;99982.19;6118463;23;20018;-82
2023/10/17 12:27:39;;;;;;;12.93;6.55;;;;;;;9.33;68.90;99980.03;6096734;23;20402;-82
2023/10/17 12:30:10;;;;;;;16.02;5.93;;;;;;;9.37;68.74;99985.09;6143936;23;20032;-85
2023/10/17 12:32:37;;;;;;;12.25;6.25;;;;;;;9.37;68.54;99974.50;6094104;23;20025;-84
2023/10/17 12:35:07;;;;;;;9.18;5.53;;;;;;;9.35;68.37;99980.75;6142070;23;20084;-85
2023/10/17 12:37:43;;;;;;;14.15;5.15;;;;;;;9.37;68.47;99980.63;6116277;23;20025;-86
2023/10/17 12:40:23;;;;;;;15.98;6.55;;;;;;;9.35;68.67;99972.78;6071206;23;20026;-85
2023/10/17 12:42:51;;;;;;;9.68;5.20;;;;;;;9.37;68.53;99975.34;6094388;23;20025;-86
2023/10/17 12:45:19;;;;;;;11.77;5.65;;;;;;;9.32;68.75;99981.00;6117497;23;20025;-84
2023/10/17 12:47:47;;;;;;;16.60;6.72;;;;;;;9.33;68.49;99977.38;6120506;23;20030;-84
2023/10/17 12:50:15;;;;;;;13.80;6.30;;;;;;;9.30;68.57;99972.31;6093890;23;20072;-86
2023/10/17 12:52:42;;;;;;;22.75;6.70;;;;;;;9.31;68.28;99967.88;6091226;23;20033;-85
2023/10/17 12:55:11;;;;;;;11.90;6.15;;;;;;;9.31;68.70;99968.72;6069375;23;20033;-85
2023/10/17 12:57:38;;;;;;;11.60;5.35;;;;;;;9.33;69.01;99963.28;6116252;23;20032;-85
2023/10/17 13:00:09;;;;;;;13.73;5.88;;;;;;;9.34;68.99;99965.81;6091096;23;20029;-86
2023/10/17 13:02:38;;;;;;;12.38;4.97;;;;;;;9.33;68.91;99958.00;6116692;23;20033;-85
2023/10/17 13:05:09;;;;;;;13.90;5.65;;;;;;;9.37;69.17;99955.94;6093108;23;20358;-85
2023/10/17 13:07:40;;;;;;;12.82;6.22;;;;;;;9.34;68.91;99947.28;6116726;23;20029;-85
2023/10/17 13:10:08;;;;;;;12.75;5.35;;;;;;;9.37;68.84;99946.19;6092403;23;20021;-85
2023/10/17 13:12:35;;;;;;;12.02;6.22;;;;;;;9.36;68.81;99955.06;6069179;23;20014;-85
2023/10/17 13:15:06;;;;;;;11.27;5.60;;;;;;;9.33;68.89;99950.03;6092451;23;20045;-84
2023/10/17 13:17:33;;;;;;;12.30;5.90;;;;;;;9.32;68.99;99948.38;6140094;23;20454;-86
2023/10/17 13:20:07;;;;;;;10.50;5.85;;;;;;;9.31;68.98;99938.72;6092750;23;20469;-86
2023/10/17 13:22:52;;;;;;;12.35;5.80;;;;;;;9.30;68.83;99945.00;6102893;23;20018;-85
2023/10/17 13:25:20;;;;;;;10.50;5.32;;;;;;;9.30;69.12;99948.47;6114340;23;20017;-86
2023/10/17 13:27:48;;;;;;;12.23;6.47;;;;;;;9.31;68.74;99944.00;6093752;23;20076;-86
2023/10/17 13:30:15;;;;;;;14.00;5.57;;;;;;;9.31;69.12;99941.38;6069948;23;20454;-87
2023/10/17 13:32:42;;;;;;;9.32;5.35;;;;;;;9.28;68.99;99942.44;6091246;23;20358;-88
2023/10/17 13:35:09;;;;;;;8.55;5.20;;;;;;;9.28;69.36;99929.22;6094258;23;20499;-86
2023/10/17 13:37:36;;;;;;;14.68;5.75;;;;;;;9.27;69.35;99929.34;6118646;23;20021;-86
2023/10/17 13:40:03;;;;;;;9.65;5.00;;;;;;;9.27;68.98;99935.47;6094026;23;20049;-86
2023/10/17 13:42:32;;;;;;;10.93;5.38;;;;;;;9.26;69.12;99944.41;6095639;23;20044;-87
2023/10/17 13:44:59;;;;;;;14.48;5.57;;;;;;;9.29;69.01;99940.66;6093709;23;20053;-84
2023/10/17 13:47:26;;;;;;;13.45;5.10;;;;;;;9.31;68.85;99942.22;6092020;23;20025;-83
2023/10/17 13:49:53;;;;;;;12.73;5.40;;;;;;;9.32;69.22;99943.06;6141986;23;20450;-83
2023/10/17 13:52:20;;;;;;;9.48;5.00;;;;;;;9.31;69.40;99938.72;6117184;23;20531;-83
2023/10/17 13:54:47;;;;;;;11.88;5.30;;;;;;;9.30;69.37;99939.69;6114150;23;20112;-83
2023/10/17 13:57:16;;;;;;;10.73;5.03;;;;;;;9.31;69.76;99936.94;6091149;23;20733;-83
2023/10/17 13:59:53;;;;;;;14.90;6.80;;;;;;;9.31;69.31;99939.56;6067527;23;20029;-83
2023/10/17 14:02:20;;;;;;;13.38;5.32;;;;;;;9.32;69.18;99937.75;6114682;23;20640;-83
2023/10/17 14:04:47;;;;;;;11.00;5.38;;;;;;;9.34;69.30;99941.97;6090061;23;20025;-83
2023/10/17 14:07:15;;;;;;;17.65;5.85;;;;;;;9.33;68.97;99934.13;6090459;23;20031;-83
2023/10/17 14:09:42;;;;;;;10.82;5.30;;;;;;;9.37;69.04;99934.75;6114273;23;20095;-84
2023/10/17 14:12:09;;;;;;;10.13;5.32;;;;;;;9.38;68.79;99939.06;6090000;23;20029;-83
2023/10/17 14:14:36;;;;;;;9.82;4.68;;;;;;;9.40;68.95;99953.88;6139607;23;20409;-83
2023/10/17 14:17:03;;;;;;;11.00;5.18;;;;;;;9.40;69.12;99937.13;6115346;23;20025;-83
2023/10/17 14:19:39;;;;;;;11.25;5.03;;;;;;;9.42;69.09;99937.84;6113427;23;20117;-83